createdAt,value
2019-05-07T00:01:23.309Z,13.35
2019-05-07T00:03:53.292Z,11.05
2019-05-07T00:06:23.252Z,11.50
2019-05-07T00:08:53.023Z,10.80
2019-05-07T00:11:22.824Z,10.75
2019-05-07T00:13:53.636Z,12.75
2019-05-07T00:16:23.490Z,11.12
2019-05-07T00:18:53.292Z,11.75
2019-05-07T00:21:23.484Z,11.05
2019-05-07T00:23:53.276Z,9.03
2019-05-07T00:26:22.969Z,13.62
2019-05-07T00:28:52.886Z,12.50
2019-05-07T00:31:23.244Z,15.07
2019-05-07T00:33:53.243Z,15.50
2019-05-07T00:36:42.216Z,16.97
2019-05-07T00:39:22.643Z,12.82
2019-05-07T00:41:59.331Z,15.60
2019-05-07T00:44:29.845Z,13.88
2019-05-07T00:47:02.092Z,11.03
2019-05-07T00:49:33.166Z,11.90
2019-05-07T00:52:03.088Z,9.33
2019-05-07T00:54:32.897Z,10.50
2019-05-07T00:57:03.339Z,10.60
2019-05-07T00:59:34.019Z,9.90
2019-05-07T01:02:03.776Z,9.93
2019-05-07T01:04:33.483Z,10.82
2019-05-07T01:07:03.321Z,9.58
2019-05-07T01:09:43.103Z,8.55
2019-05-07T01:12:12.983Z,7.87
2019-05-07T01:14:43.795Z,8.15
2019-05-07T01:17:13.702Z,8.15
2019-05-07T01:19:43.543Z,10.78
2019-05-07T01:22:13.232Z,10.68
2019-05-07T01:24:43.436Z,9.38
2019-05-07T01:27:13.247Z,7.65
2019-05-07T01:29:43.086Z,8.23
2019-05-07T01:32:30.487Z,6.97
2019-05-07T01:35:06.817Z,7.08
2019-05-07T01:37:36.556Z,7.95
2019-05-07T01:40:12.104Z,7.70
2019-05-07T01:42:42.512Z,8.50
2019-05-07T01:45:24.850Z,7.43
2019-05-07T01:47:54.869Z,8.40
2019-05-07T01:50:24.623Z,10.40
2019-05-07T01:52:54.344Z,9.53
2019-05-07T01:55:24.102Z,7.47
2019-05-07T01:57:53.803Z,7.12
2019-05-07T02:00:24.027Z,7.70
2019-05-07T02:02:59.795Z,8.90
2019-05-07T02:05:46.180Z,9.73
2019-05-07T02:08:22.222Z,7.87
2019-05-07T02:11:02.088Z,7.90
2019-05-07T02:13:33.817Z,8.35
2019-05-07T02:16:04.238Z,10.08
2019-05-07T02:18:34.270Z,7.15
2019-05-07T02:21:04.123Z,9.10
2019-05-07T02:23:33.886Z,7.12
2019-05-07T02:26:03.740Z,7.62
2019-05-07T02:28:33.588Z,9.75
2019-05-07T02:31:04.107Z,9.13
2019-05-07T02:33:35.133Z,7.65
2019-05-07T02:38:48.300Z,10.13
2019-05-07T02:41:23.417Z,7.28
2019-05-07T02:43:53.725Z,6.95
2019-05-07T02:46:32.940Z,9.83
2019-05-07T02:49:13.505Z,7.70
2019-05-07T02:51:53.139Z,6.28
2019-05-07T02:54:32.909Z,7.60
2019-05-07T02:57:03.581Z,7.62
2019-05-07T02:59:33.837Z,9.45
2019-05-07T03:02:03.916Z,6.37
2019-05-07T03:04:33.606Z,6.85
2019-05-07T03:07:04.080Z,7.22
2019-05-07T03:09:33.785Z,7.00
2019-05-07T03:12:04.117Z,7.70
2019-05-07T03:14:33.921Z,5.15
2019-05-07T03:17:03.812Z,7.53
2019-05-07T03:19:35.303Z,9.20
2019-05-07T03:22:05.158Z,6.80
2019-05-07T03:24:46.855Z,6.70
2019-05-07T03:27:16.586Z,8.13
2019-05-07T03:29:54.093Z,7.33
2019-05-07T03:32:37.867Z,9.43
2019-05-07T03:37:58.187Z,6.75
2019-05-07T03:40:28.898Z,8.43
2019-05-07T03:43:01.845Z,8.28
2019-05-07T03:45:58.065Z,7.45
2019-05-07T03:48:28.860Z,7.85
2019-05-07T03:50:58.539Z,6.80
2019-05-07T03:53:28.329Z,6.42
2019-05-07T03:55:58.205Z,11.50
2019-05-07T03:58:27.995Z,7.25
2019-05-07T04:01:03.929Z,6.80
2019-05-07T04:03:34.144Z,8.53
2019-05-07T04:06:03.995Z,6.67
2019-05-07T04:08:33.969Z,7.22
2019-05-07T04:11:04.184Z,7.95
2019-05-07T04:13:34.126Z,6.90
2019-05-07T04:16:04.446Z,8.48
2019-05-07T04:18:34.395Z,9.93
2019-05-07T04:21:04.426Z,6.40
2019-05-07T04:23:34.641Z,8.13
2019-05-07T04:26:16.328Z,6.47
2019-05-07T04:29:06.600Z,11.38
2019-05-07T04:31:43.027Z,7.72
2019-05-07T04:34:23.775Z,8.43
2019-05-07T04:36:53.471Z,8.53
2019-05-07T04:39:23.554Z,9.60
2019-05-07T04:42:05.442Z,7.83
2019-05-07T04:44:39.303Z,6.42
2019-05-07T04:47:08.936Z,7.00
2019-05-07T04:49:38.518Z,5.95
2019-05-07T04:52:15.371Z,10.65
2019-05-07T04:54:45.240Z,9.38
2019-05-07T04:57:26.932Z,9.73
2019-05-07T04:59:58.537Z,10.53
2019-05-07T05:02:46.013Z,11.03
2019-05-07T05:05:16.500Z,9.30
2019-05-07T05:07:46.108Z,12.43
2019-05-07T05:10:15.692Z,12.98
2019-05-07T05:12:46.351Z,12.23
2019-05-07T05:15:15.956Z,10.32
2019-05-07T05:17:50.929Z,11.03
2019-05-07T05:20:22.195Z,11.38
2019-05-07T05:23:07.187Z,13.28
2019-05-07T05:25:43.281Z,9.05
2019-05-07T05:28:16.653Z,9.35
2019-05-07T05:30:55.839Z,10.80
2019-05-07T05:33:25.427Z,10.38
2019-05-07T05:35:55.015Z,9.25
2019-05-07T05:38:24.583Z,7.25
2019-05-07T05:40:55.984Z,9.85
2019-05-07T05:43:52.838Z,7.47
2019-05-07T05:46:24.633Z,11.70
2019-05-07T05:48:56.741Z,9.63
2019-05-07T05:51:48.053Z,13.58
2019-05-07T05:54:37.050Z,11.45
2019-05-07T05:57:25.820Z,10.30
2019-05-07T06:03:27.380Z,10.68
2019-05-07T06:06:03.771Z,8.80
2019-05-07T06:08:52.509Z,8.73
2019-05-07T06:11:38.339Z,6.00
2019-05-07T06:14:13.037Z,10.00
2019-05-07T06:16:56.520Z,8.48
2019-05-07T06:19:38.586Z,10.30
2019-05-07T06:22:39.647Z,7.67
2019-05-07T06:25:16.225Z,7.80
2019-05-07T06:27:45.906Z,12.40
2019-05-07T06:30:16.826Z,8.38
2019-05-07T06:35:19.331Z,12.73
2019-05-07T06:37:48.882Z,11.05
2019-05-07T06:40:46.864Z,10.85
2019-05-07T06:43:42.048Z,10.00
2019-05-07T06:46:12.521Z,10.95
2019-05-07T06:48:45.940Z,10.88
2019-05-07T06:51:17.669Z,11.40
2019-05-07T06:53:47.784Z,12.88
2019-05-07T06:56:45.431Z,10.93
2019-05-07T06:59:22.516Z,10.35
2019-05-07T07:02:05.343Z,12.50
2019-05-07T07:04:52.098Z,15.43
2019-05-07T07:07:37.027Z,14.60
2019-05-07T07:10:26.877Z,14.05
2019-05-07T07:12:56.687Z,12.23
2019-05-07T07:15:26.658Z,13.18
2019-05-07T07:18:02.982Z,16.45
2019-05-07T07:20:32.735Z,17.77
2019-05-07T07:23:02.504Z,17.98
2019-05-07T07:25:32.703Z,16.40
2019-05-07T07:28:04.590Z,12.60
2019-05-07T07:30:42.079Z,13.03
2019-05-07T07:33:12.230Z,16.85
2019-05-07T07:35:42.828Z,12.10
2019-05-07T07:38:32.670Z,10.85
2019-05-07T07:41:13.730Z,15.08
2019-05-07T07:43:43.351Z,15.38
2019-05-07T07:46:18.810Z,14.87
2019-05-07T07:49:03.179Z,13.60
2019-05-07T07:51:34.300Z,13.20
2019-05-07T07:53:55.919Z,12.00
2019-05-07T07:57:02.382Z,13.18
2019-05-07T07:59:53.998Z,13.83
2019-05-07T08:02:42.441Z,12.65
2019-05-07T08:05:12.667Z,13.55
2019-05-07T08:07:42.770Z,13.10
2019-05-07T08:10:13.025Z,11.67
2019-05-07T08:12:43.003Z,13.70
2019-05-07T08:15:18.055Z,11.95
2019-05-07T08:18:13.768Z,15.98
2019-05-07T08:20:53.666Z,12.82
2019-05-07T08:23:24.189Z,12.98
2019-05-07T08:25:57.267Z,12.28
2019-05-07T08:28:32.250Z,9.53
2019-05-07T08:31:26.568Z,9.23
2019-05-07T08:34:15.386Z,10.18
2019-05-07T08:36:46.293Z,13.05
2019-05-07T08:41:49.529Z,12.28
2019-05-07T08:44:22.305Z,13.53
2019-05-07T08:47:23.455Z,9.78
2019-05-07T08:52:23.405Z,11.40
2019-05-07T08:54:54.329Z,13.18
2019-05-07T08:57:24.585Z,13.75
2019-05-07T09:00:00.861Z,12.55
2019-05-07T09:02:26.774Z,10.30
2019-05-07T09:04:56.780Z,9.58
2019-05-07T09:07:26.582Z,10.60
2019-05-07T09:09:56.198Z,7.33
2019-05-07T09:12:25.766Z,9.08
2019-05-07T09:14:57.456Z,10.53
2019-05-07T09:17:26.983Z,10.25
2019-05-07T09:19:56.643Z,10.75
2019-05-07T09:22:26.293Z,11.03
2019-05-07T09:24:55.851Z,12.85
2019-05-07T09:27:37.759Z,10.45
2019-05-07T09:30:52.557Z,10.68
2019-05-07T09:33:39.265Z,11.97
2019-05-07T09:36:22.809Z,14.20
2019-05-07T09:38:56.947Z,12.90
2019-05-07T09:41:32.693Z,12.82
2019-05-07T09:44:03.153Z,12.30
2019-05-07T09:46:33.987Z,14.23
2019-05-07T09:49:03.565Z,11.63
2019-05-07T09:51:33.248Z,12.30
2019-05-07T09:54:02.850Z,11.40
2019-05-07T09:56:32.465Z,12.90
2019-05-07T09:59:02.298Z,13.83
2019-05-07T10:04:02.621Z,13.05
2019-05-07T10:06:33.420Z,14.60
2019-05-07T10:09:03.181Z,16.90
2019-05-07T10:14:12.395Z,14.30
2019-05-07T10:17:02.740Z,13.22
2019-05-07T10:19:33.726Z,14.33
2019-05-07T10:22:12.450Z,10.48
2019-05-07T10:24:43.607Z,16.42
2019-05-07T10:27:14.393Z,10.75
2019-05-07T10:29:44.937Z,13.48
2019-05-07T10:32:15.562Z,13.30
2019-05-07T10:34:45.166Z,14.45
2019-05-07T10:37:14.817Z,14.73
2019-05-07T10:39:44.539Z,12.25
2019-05-07T10:42:14.251Z,14.47
2019-05-07T10:44:52.435Z,9.75
2019-05-07T10:47:44.174Z,11.38
2019-05-07T10:50:38.020Z,8.60
2019-05-07T10:52:57.823Z,12.25
2019-05-07T10:55:27.412Z,11.40
2019-05-07T10:57:57.063Z,10.93
2019-05-07T11:00:27.295Z,13.80
2019-05-07T11:02:56.930Z,11.95
2019-05-07T11:05:26.599Z,10.38
2019-05-07T11:07:56.599Z,9.28
2019-05-07T11:10:26.433Z,13.30
2019-05-07T11:12:56.264Z,13.55
2019-05-07T11:15:28.261Z,15.03
2019-05-07T11:18:08.233Z,14.20
2019-05-07T11:20:47.414Z,13.55
2019-05-07T11:23:13.211Z,12.95
2019-05-07T11:25:43.590Z,11.30
2019-05-07T11:28:16.381Z,12.28
2019-05-07T11:30:46.122Z,10.53
2019-05-07T11:33:15.771Z,11.83
2019-05-07T11:35:49.470Z,9.33
2019-05-07T11:38:22.275Z,12.07
2019-05-07T11:40:51.770Z,12.37
2019-05-07T11:43:46.373Z,14.40
2019-05-07T11:46:22.093Z,11.53
2019-05-07T11:49:11.554Z,11.40
2019-05-07T11:51:51.699Z,9.75
2019-05-07T11:54:21.339Z,9.68
2019-05-07T11:56:58.345Z,10.32
2019-05-07T11:59:27.955Z,9.48
2019-05-07T12:02:02.121Z,10.20
2019-05-07T12:04:32.105Z,12.43
2019-05-07T12:07:02.568Z,13.48
2019-05-07T12:09:33.260Z,11.78
2019-05-07T12:12:03.008Z,10.05
2019-05-07T12:14:34.955Z,10.23
2019-05-07T12:17:03.887Z,9.90
2019-05-07T12:19:35.694Z,11.12
2019-05-07T12:22:06.377Z,11.38
2019-05-07T12:24:36.084Z,14.50
2019-05-07T12:27:05.635Z,10.32
2019-05-07T12:29:35.182Z,11.30
2019-05-07T12:32:18.547Z,10.15
2019-05-07T12:34:52.651Z,9.88
2019-05-07T12:37:22.506Z,11.33
2019-05-07T12:39:52.766Z,9.53
2019-05-07T12:42:22.484Z,7.92
2019-05-07T12:44:53.134Z,7.83
2019-05-07T12:47:22.673Z,10.58
2019-05-07T12:49:52.382Z,8.40
2019-05-07T12:52:26.247Z,12.23
2019-05-07T12:55:03.228Z,12.85
2019-05-07T12:57:42.153Z,9.55
2019-05-07T13:00:29.631Z,8.20
2019-05-07T13:03:24.327Z,9.30
2019-05-07T13:05:54.013Z,10.45
2019-05-07T13:08:23.610Z,8.00
2019-05-07T13:10:53.244Z,10.23
2019-05-07T13:13:23.095Z,9.68
2019-05-07T13:18:24.460Z,11.55
2019-05-07T13:20:55.350Z,9.58
2019-05-07T13:23:24.944Z,13.08
2019-05-07T13:25:54.521Z,7.10
2019-05-07T13:28:24.171Z,7.50
2019-05-07T13:30:53.786Z,8.35
2019-05-07T13:33:31.628Z,8.30
2019-05-07T13:36:02.304Z,8.23
2019-05-07T13:38:37.966Z,12.15
2019-05-07T13:41:14.983Z,9.80
2019-05-07T13:44:03.069Z,10.68
2019-05-07T13:46:33.397Z,7.65
2019-05-07T13:49:03.011Z,13.03
2019-05-07T13:51:33.987Z,11.68
2019-05-07T13:54:03.872Z,9.88
2019-05-07T13:56:33.483Z,9.47
2019-05-07T13:59:05.029Z,14.47
2019-05-07T14:01:41.144Z,8.33
2019-05-07T14:04:12.749Z,8.98
2019-05-07T14:06:43.278Z,10.00
2019-05-07T14:09:28.058Z,15.00
2019-05-07T14:11:57.889Z,9.10
2019-05-07T14:14:27.554Z,8.53
2019-05-07T14:16:57.288Z,9.33
2019-05-07T14:19:26.925Z,8.98
2019-05-07T14:21:56.543Z,10.50
2019-05-07T14:24:26.288Z,13.45
2019-05-07T14:26:56.148Z,9.55
2019-05-07T14:29:26.689Z,12.17
2019-05-07T14:32:04.030Z,10.65
2019-05-07T14:34:36.091Z,10.10
2019-05-07T14:37:22.513Z,8.43
2019-05-07T14:39:52.231Z,10.45
2019-05-07T14:42:28.960Z,10.08
2019-05-07T14:44:58.579Z,9.55
2019-05-07T14:47:28.191Z,10.28
2019-05-07T14:49:57.847Z,10.08
2019-05-07T14:52:36.193Z,8.70
2019-05-07T14:55:06.588Z,11.48
2019-05-07T14:57:36.235Z,10.05
2019-05-07T15:00:06.285Z,9.40
2019-05-07T15:02:36.983Z,8.08
2019-05-07T15:07:38.499Z,10.58
2019-05-07T15:10:08.203Z,12.05
2019-05-07T15:12:37.847Z,9.15
2019-05-07T15:15:07.588Z,11.53
2019-05-07T15:17:44.642Z,9.73
2019-05-07T15:20:16.394Z,9.78
2019-05-07T15:22:57.415Z,10.60
2019-05-07T15:25:28.005Z,15.23
2019-05-07T15:27:58.739Z,20.10
2019-05-07T15:30:33.892Z,13.48
2019-05-07T15:33:03.501Z,12.15
2019-05-07T15:35:33.148Z,12.68
2019-05-07T15:38:04.907Z,11.90
2019-05-07T15:40:34.506Z,10.35
2019-05-07T15:43:04.228Z,9.73
2019-05-07T15:45:33.832Z,11.20
2019-05-07T15:48:04.479Z,12.10
2019-05-07T15:50:34.065Z,11.63
2019-05-07T15:53:25.726Z,9.30
2019-05-07T15:55:55.379Z,10.50
2019-05-07T15:58:26.571Z,11.50
2019-05-07T16:00:58.163Z,11.33
2019-05-07T16:03:38.135Z,8.93
2019-05-07T16:06:07.824Z,18.50
2019-05-07T16:08:42.875Z,16.52
2019-05-07T16:11:15.865Z,11.15
2019-05-07T16:13:52.444Z,10.00
2019-05-07T16:16:23.573Z,10.45
2019-05-07T16:19:06.075Z,13.40
2019-05-07T16:21:35.833Z,10.03
2019-05-07T16:24:05.914Z,8.93
2019-05-07T16:26:35.775Z,12.75
2019-05-07T16:32:32.810Z,11.20
2019-05-07T16:35:32.098Z,9.10
2019-05-07T16:38:02.047Z,9.30
2019-05-07T16:40:32.446Z,10.37
2019-05-07T16:43:03.765Z,8.05
2019-05-07T16:45:43.722Z,9.85
2019-05-07T16:48:18.260Z,9.43
2019-05-07T16:51:12.670Z,10.45
2019-05-07T16:53:45.159Z,11.90
2019-05-07T16:56:17.103Z,9.88
2019-05-07T17:02:15.835Z,9.70
2019-05-07T17:05:07.523Z,12.15
2019-05-07T17:07:42.701Z,12.58
2019-05-07T17:10:12.432Z,13.28
2019-05-07T17:12:43.766Z,10.03
2019-05-07T17:15:13.497Z,10.20
2019-05-07T17:17:43.407Z,12.60
2019-05-07T17:20:13.279Z,10.97
2019-05-07T17:22:43.986Z,12.50
2019-05-07T17:25:33.405Z,10.95
2019-05-07T17:28:03.109Z,11.25
2019-05-07T17:30:32.848Z,12.15
2019-05-07T17:33:02.432Z,10.75
2019-05-07T17:35:34.403Z,13.78
2019-05-07T17:38:09.002Z,11.10
2019-05-07T17:40:36.310Z,38.70
2019-05-07T17:43:05.968Z,13.90
2019-05-07T17:45:37.675Z,14.43
2019-05-07T17:48:07.496Z,11.12
2019-05-07T17:50:42.971Z,12.93
2019-05-07T17:53:13.643Z,13.38
2019-05-07T17:55:43.285Z,11.55
2019-05-07T17:58:13.061Z,12.50
2019-05-07T18:00:44.280Z,11.67
2019-05-07T18:03:33.119Z,11.50
2019-05-07T18:06:05.924Z,11.38
2019-05-07T18:08:36.629Z,13.30
2019-05-07T18:11:17.434Z,9.70
2019-05-07T18:13:37.910Z,13.32
2019-05-07T18:16:24.391Z,11.87
2019-05-07T18:18:55.112Z,10.20
2019-05-07T18:21:26.967Z,14.78
2019-05-07T18:24:11.257Z,9.65
2019-05-07T18:26:30.914Z,13.60
2019-05-07T18:29:02.455Z,12.15
2019-05-07T18:31:48.995Z,17.80
2019-05-07T18:34:18.928Z,11.78
2019-05-07T18:36:49.936Z,10.90
2019-05-07T18:39:20.682Z,11.93
2019-05-07T18:41:52.423Z,10.85
2019-05-07T18:44:23.275Z,12.23
2019-05-07T18:49:22.677Z,11.35
2019-05-07T18:51:52.343Z,12.82
2019-05-07T18:54:30.292Z,14.73
2019-05-07T18:56:53.575Z,15.80
2019-05-07T18:59:27.892Z,12.43
2019-05-07T19:01:57.715Z,12.85
2019-05-07T19:04:30.100Z,13.95
2019-05-07T19:06:58.871Z,13.90
2019-05-07T19:09:28.704Z,13.37
2019-05-07T19:11:59.445Z,13.62
2019-05-07T19:16:58.280Z,23.50
2019-05-07T19:19:27.922Z,16.42
2019-05-07T19:21:57.755Z,15.30
2019-05-07T19:24:40.822Z,15.32
2019-05-07T19:26:58.788Z,13.93
2019-05-07T19:29:29.372Z,18.32
2019-05-07T19:31:59.103Z,22.50
2019-05-07T19:34:32.474Z,18.32
2019-05-07T19:37:02.674Z,16.37
2019-05-07T19:39:33.556Z,14.98
2019-05-07T19:42:03.434Z,16.20
2019-05-07T19:44:38.256Z,22.03
2019-05-07T19:47:07.866Z,29.18
2019-05-07T19:49:38.623Z,17.55
2019-05-07T19:52:08.513Z,17.05
2019-05-07T19:55:00.436Z,14.63
2019-05-07T19:57:26.550Z,15.10
2019-05-07T19:59:57.183Z,16.97
2019-05-07T20:02:32.149Z,15.65
2019-05-07T20:05:03.527Z,15.20
2019-05-07T20:07:33.376Z,13.90
2019-05-07T20:10:03.084Z,15.80
2019-05-07T20:12:32.820Z,16.02
2019-05-07T20:15:05.836Z,12.53
2019-05-07T20:17:37.746Z,14.38
2019-05-07T20:20:09.464Z,15.70
2019-05-07T20:22:40.195Z,13.60
2019-05-07T20:25:16.394Z,13.70
2019-05-07T20:27:42.179Z,16.50
2019-05-07T20:30:12.909Z,13.90
2019-05-07T20:32:44.648Z,16.60
2019-05-07T20:35:16.277Z,17.42
2019-05-07T20:37:45.939Z,12.90
2019-05-07T20:40:17.147Z,14.78
2019-05-07T20:42:46.715Z,17.65
2019-05-07T20:45:16.232Z,15.80
2019-05-07T20:47:45.959Z,16.82
2019-05-07T20:50:15.559Z,13.38
2019-05-07T20:52:47.772Z,15.93
2019-05-07T20:55:33.213Z,15.00
2019-05-07T20:58:00.240Z,14.90
2019-05-07T21:00:32.594Z,14.47
2019-05-07T21:03:23.813Z,13.53
2019-05-07T21:05:53.372Z,14.93
2019-05-07T21:08:23.212Z,14.98
2019-05-07T21:10:53.807Z,12.30
2019-05-07T21:13:30.910Z,14.90
2019-05-07T21:15:54.981Z,16.07
2019-05-07T21:18:24.586Z,13.15
2019-05-07T21:20:54.182Z,15.18
2019-05-07T21:23:23.778Z,18.55
2019-05-07T21:25:53.419Z,15.72
2019-05-07T21:28:23.210Z,16.35
2019-05-07T21:30:52.854Z,14.63
2019-05-07T21:33:22.990Z,16.10
2019-05-07T21:35:52.685Z,13.50
2019-05-07T21:38:22.636Z,15.00
2019-05-07T21:40:52.310Z,15.47
2019-05-07T21:43:22.971Z,17.60
2019-05-07T21:45:53.617Z,14.98
2019-05-07T21:48:23.214Z,14.07
2019-05-07T21:50:54.575Z,15.43
2019-05-07T21:53:29.614Z,13.95
2019-05-07T21:56:22.845Z,12.82
2019-05-07T21:59:03.012Z,15.70
2019-05-07T22:01:36.363Z,16.45
2019-05-07T22:04:06.003Z,14.65
2019-05-07T22:06:35.573Z,15.65
2019-05-07T22:09:07.432Z,13.55
2019-05-07T22:11:37.113Z,13.53
2019-05-07T22:14:06.718Z,15.85
2019-05-07T22:16:36.347Z,12.03
2019-05-07T22:19:06.122Z,15.10
2019-05-07T22:21:35.702Z,16.07
2019-05-07T22:24:05.335Z,16.45
2019-05-07T22:26:35.032Z,14.80
2019-05-07T22:29:04.558Z,14.78
2019-05-07T22:31:56.470Z,13.70
2019-05-07T22:34:33.477Z,11.95
2019-05-07T22:37:04.402Z,16.30
2019-05-07T22:39:35.576Z,12.68
2019-05-07T22:42:06.743Z,14.30
2019-05-07T22:44:36.395Z,15.43
2019-05-07T22:47:22.708Z,14.30
2019-05-07T22:49:53.572Z,17.00
2019-05-07T22:52:27.300Z,14.50
2019-05-07T22:54:57.020Z,16.45
2019-05-07T22:57:54.693Z,13.28
2019-05-07T23:00:42.534Z,14.38
2019-05-07T23:03:12.409Z,14.73
2019-05-07T23:05:44.979Z,16.10
2019-05-07T23:08:14.829Z,12.80
2019-05-07T23:10:44.669Z,18.65
2019-05-07T23:13:14.319Z,14.38
2019-05-07T23:15:43.936Z,11.97
2019-05-07T23:18:13.536Z,14.13
2019-05-07T23:20:43.075Z,12.37
2019-05-07T23:23:14.217Z,13.70
2019-05-07T23:25:44.001Z,13.50
2019-05-07T23:28:14.615Z,13.10
2019-05-07T23:30:44.412Z,12.82
2019-05-07T23:33:14.046Z,13.58
2019-05-07T23:35:43.589Z,13.72
2019-05-07T23:38:15.913Z,18.95
2019-05-07T23:40:56.069Z,15.08
2019-05-07T23:43:25.653Z,13.38
2019-05-07T23:45:55.283Z,12.47
2019-05-07T23:48:24.936Z,14.43
2019-05-07T23:50:55.536Z,13.13
2019-05-07T23:53:25.160Z,16.27
2019-05-07T23:55:54.730Z,13.48
2019-05-07T23:58:24.356Z,14.50
